Time;durP1;ratioP1;P1;durP2;ratioP2;P2;SDS_P1;SDS_P2;PMS_P1;PMS_P2;Temp;Humidity;BMP_temperature;BMP_pressure;BME280_temperature;BME280_humidity;BME280_pressure;Samples;Min_cycle;Max_cycle;Signal;HPM_P1;HPM_P2
2023/04/15 00:02:19;;;;;;;2.63;2.42;;;;;;;;;;5075212;28;20221;-89
2023/04/15 00:04:47;;;;;;;4.10;2.92;;;;;;;;;;5074811;28;20765;-89
2023/04/15 00:07:15;;;;;;;2.88;2.67;;;;;;;;;;5074621;28;20288;-89
2023/04/15 00:09:43;;;;;;;4.28;3.38;;;;;;;;;;5074774;28;20212;-89
2023/04/15 00:12:12;;;;;;;3.60;3.30;;;;;;;;;;5074862;28;20219;-90
2023/04/15 00:14:40;;;;;;;3.53;3.22;;;;;;;;;;5074516;28;20248;-89
2023/04/15 00:17:07;;;;;;;4.85;3.20;;;;;;;;;;5074701;28;20635;-89
2023/04/15 00:19:35;;;;;;;3.33;3.03;;;;;;;;;;5074524;28;20236;-89
2023/04/15 00:22:03;;;;;;;4.35;3.95;;;;;;;;;;5074381;28;20203;-89
2023/04/15 00:24:35;;;;;;;3.22;3.03;;;;;;;;;;5074369;28;20315;-89
2023/04/15 00:27:03;;;;;;;3.28;2.97;;;;;;;;;;5074753;28;20212;-89
2023/04/15 00:29:33;;;;;;;3.25;2.97;;;;;;;;;;5074548;28;20642;-89
2023/04/15 00:32:01;;;;;;;3.75;3.45;;;;;;;;;;5074466;28;20699;-89
2023/04/15 00:34:29;;;;;;;4.35;3.25;;;;;;;;;;5074292;28;20220;-90
2023/04/15 00:36:56;;;;;;;3.63;3.30;;;;;;;;;;5074232;28;20642;-89
2023/04/15 00:39:24;;;;;;;3.72;3.42;;;;;;;;;;5073986;28;20220;-90
2023/04/15 00:41:51;;;;;;;3.83;3.20;;;;;;;;;;5074133;28;20201;-88
2023/04/15 00:44:19;;;;;;;4.18;3.50;;;;;;;;;;5073946;28;20312;-89
2023/04/15 00:46:49;;;;;;;4.07;3.67;;;;;;;;;;5074002;28;20299;-89
2023/04/15 00:49:17;;;;;;;3.90;3.60;;;;;;;;;;5074303;28;20379;-89
2023/04/15 00:51:44;;;;;;;3.47;3.08;;;;;;;;;;5074171;28;20224;-88
2023/04/15 00:54:12;;;;;;;5.90;3.97;;;;;;;;;;5073633;28;20307;-89
2023/04/15 00:56:40;;;;;;;3.75;3.45;;;;;;;;;;5053785;28;20225;-89
2023/04/15 00:59:09;;;;;;;3.63;3.10;;;;;;;;;;5053203;28;20198;-88
2023/04/15 01:01:37;;;;;;;3.78;3.42;;;;;;;;;;5053910;28;20292;-90
2023/04/15 01:04:08;;;;;;;3.90;3.60;;;;;;;;;;5053850;28;20602;-91
2023/04/15 01:06:35;;;;;;;3.58;3.28;;;;;;;;;;5053858;28;20634;-89
2023/04/15 01:09:03;;;;;;;3.20;2.90;;;;;;;;;;5053675;28;20233;-89
2023/04/15 01:11:32;;;;;;;3.92;3.63;;;;;;;;;;5053559;28;20313;-89
2023/04/15 01:13:59;;;;;;;3.42;3.15;;;;;;;;;;5053450;28;20220;-89
2023/04/15 01:16:27;;;;;;;3.15;2.95;;;;;;;;;;5053692;28;20206;-89
2023/04/15 01:18:55;;;;;;;3.47;3.17;;;;;;;;;;5053386;28;20254;-89
2023/04/15 01:21:24;;;;;;;3.05;2.80;;;;;;;;;;5053742;28;20674;-90
2023/04/15 01:23:52;;;;;;;3.92;3.53;;;;;;;;;;5053532;28;20780;-89
2023/04/15 01:26:21;;;;;;;3.97;3.58;;;;;;;;;;5071657;28;20240;-89
2023/04/15 01:28:49;;;;;;;3.20;3.00;;;;;;;;;;5073750;28;20700;-88
2023/04/15 01:31:17;;;;;;;4.28;3.47;;;;;;;;;;5073577;28;20192;-89
2023/04/15 01:33:46;;;;;;;3.70;3.40;;;;;;;;;;5073495;28;20224;-89
2023/04/15 01:36:13;;;;;;;3.15;2.88;;;;;;;;;;5073166;28;20283;-89
2023/04/15 01:38:41;;;;;;;3.63;3.33;;;;;;;;;;5073535;28;20243;-89
2023/04/15 01:41:09;;;;;;;5.18;4.68;;;;;;;;;;5073576;28;20280;-89
2023/04/15 01:43:38;;;;;;;4.00;3.65;;;;;;;;;;5073787;28;20270;-89
2023/04/15 01:46:05;;;;;;;3.95;3.55;;;;;;;;;;5073545;28;20221;-89
2023/04/15 01:48:33;;;;;;;4.07;3.72;;;;;;;;;;5073366;28;20551;-89
2023/04/15 01:51:01;;;;;;;4.10;3.55;;;;;;;;;;5073149;28;20197;-89
2023/04/15 01:53:28;;;;;;;4.63;4.30;;;;;;;;;;5073291;28;20308;-89
2023/04/15 01:55:56;;;;;;;4.38;3.92;;;;;;;;;;5073294;28;20205;-89
2023/04/15 01:58:23;;;;;;;3.92;3.63;;;;;;;;;;5073967;28;20292;-90
2023/04/15 02:00:52;;;;;;;4.22;3.92;;;;;;;;;;5073959;28;20197;-89
2023/04/15 02:03:20;;;;;;;3.88;3.58;;;;;;;;;;5073061;28;20584;-89
2023/04/15 02:05:48;;;;;;;3.17;2.88;;;;;;;;;;5073173;28;20717;-90
2023/04/15 02:08:15;;;;;;;4.13;3.50;;;;;;;;;;5072850;28;20233;-89
2023/04/15 02:10:43;;;;;;;3.72;3.30;;;;;;;;;;5074393;28;20283;-90
2023/04/15 02:13:10;;;;;;;3.58;3.25;;;;;;;;;;5076650;28;20229;-89
2023/04/15 02:15:38;;;;;;;4.20;3.85;;;;;;;;;;5076922;28;20596;-89
2023/04/15 02:18:07;;;;;;;4.20;3.80;;;;;;;;;;5077008;28;20295;-90
2023/04/15 02:20:35;;;;;;;3.85;3.55;;;;;;;;;;5077049;28;20231;-89
2023/04/15 02:23:06;;;;;;;4.95;3.75;;;;;;;;;;5076585;28;20197;-91
2023/04/15 02:25:33;;;;;;;4.28;3.97;;;;;;;;;;5077121;28;20182;-90
2023/04/15 02:28:01;;;;;;;4.43;4.03;;;;;;;;;;5076498;28;20299;-90
2023/04/15 02:30:28;;;;;;;4.07;3.78;;;;;;;;;;5076781;28;20783;-89
2023/04/15 02:32:56;;;;;;;4.50;3.80;;;;;;;;;;5076497;28;20308;-89
2023/04/15 02:35:25;;;;;;;4.80;4.05;;;;;;;;;;5076334;28;20248;-89
2023/04/15 02:37:53;;;;;;;5.38;4.60;;;;;;;;;;5076716;28;20205;-89
2023/04/15 02:40:20;;;;;;;4.78;4.38;;;;;;;;;;5076608;28;20197;-89
2023/04/15 02:42:48;;;;;;;3.70;3.40;;;;;;;;;;5076419;28;20287;-89
2023/04/15 02:45:15;;;;;;;4.95;4.50;;;;;;;;;;5076530;28;20308;-89
2023/04/15 02:47:44;;;;;;;6.05;4.97;;;;;;;;;;5076838;28;20224;-90
2023/04/15 02:50:13;;;;;;;4.35;3.80;;;;;;;;;;5076336;28;20205;-90
2023/04/15 02:52:44;;;;;;;4.63;4.22;;;;;;;;;;5077018;28;20227;-89
2023/04/15 02:55:11;;;;;;;5.25;4.75;;;;;;;;;;5077423;28;20604;-85
2023/04/15 02:57:39;;;;;;;4.47;4.03;;;;;;;;;;5080353;28;20224;-87
2023/04/15 03:00:10;;;;;;;4.55;4.15;;;;;;;;;;5080944;28;20220;-87
2023/04/15 03:02:39;;;;;;;4.65;4.25;;;;;;;;;;5081503;28;20630;-87
2023/04/15 03:05:11;;;;;;;4.65;4.25;;;;;;;;;;5080213;28;20289;-86
2023/04/15 03:07:39;;;;;;;5.93;5.32;;;;;;;;;;5079683;28;20238;-88
2023/04/15 03:10:10;;;;;;;5.45;4.95;;;;;;;;;;5080313;28;20201;-87
2023/04/15 03:12:38;;;;;;;5.13;4.28;;;;;;;;;;5079991;28;20181;-85
2023/04/15 03:15:07;;;;;;;5.15;4.68;;;;;;;;;;5079876;28;20232;-87
2023/04/15 03:17:34;;;;;;;5.00;4.47;;;;;;;;;;5079722;28;20287;-87
2023/04/15 03:20:03;;;;;;;4.63;4.22;;;;;;;;;;5079047;28;20292;-87
2023/04/15 03:22:31;;;;;;;4.07;3.78;;;;;;;;;;5078983;28;20296;-87
2023/04/15 03:24:59;;;;;;;4.60;4.20;;;;;;;;;;5078573;28;20784;-87
2023/04/15 03:27:27;;;;;;;4.65;4.22;;;;;;;;;;5078548;28;20292;-87
2023/04/15 03:29:55;;;;;;;5.68;5.10;;;;;;;;;;5078271;28;20288;-87
2023/04/15 03:32:23;;;;;;;4.63;4.22;;;;;;;;;;5079071;28;20251;-86
2023/04/15 03:34:50;;;;;;;5.68;4.72;;;;;;;;;;5078645;28;20221;-87
2023/04/15 03:37:18;;;;;;;4.72;4.32;;;;;;;;;;5078747;28;20204;-88
2023/04/15 03:39:45;;;;;;;4.63;4.22;;;;;;;;;;5079872;28;20201;-86
2023/04/15 03:42:13;;;;;;;5.90;4.63;;;;;;;;;;5079365;28;20219;-87
2023/04/15 03:44:41;;;;;;;4.53;4.22;;;;;;;;;;5079593;28;20311;-86
2023/04/15 03:47:09;;;;;;;4.20;3.90;;;;;;;;;;5079508;28;20279;-87
2023/04/15 03:49:37;;;;;;;5.38;4.88;;;;;;;;;;5079514;28;20251;-86
2023/04/15 03:52:05;;;;;;;6.00;4.82;;;;;;;;;;5079366;28;20233;-86
2023/04/15 03:54:32;;;;;;;5.80;5.28;;;;;;;;;;5078062;28;20260;-86
2023/04/15 03:57:00;;;;;;;5.75;5.15;;;;;;;;;;5078719;28;20280;-86
2023/04/15 03:59:27;;;;;;;5.20;4.78;;;;;;;;;;5077125;28;20208;-86
2023/04/15 04:01:56;;;;;;;5.28;4.70;;;;;;;;;;5077629;28;20232;-87
2023/04/15 04:04:24;;;;;;;5.28;4.85;;;;;;;;;;5078051;28;20246;-87
2023/04/15 04:06:51;;;;;;;5.43;4.93;;;;;;;;;;5078355;28;20220;-87
2023/04/15 04:09:19;;;;;;;5.88;5.10;;;;;;;;;;5076982;28;20244;-86
2023/04/15 04:11:46;;;;;;;5.10;4.68;;;;;;;;;;5078176;28;20260;-87
2023/04/15 04:14:13;;;;;;;6.80;6.10;;;;;;;;;;5078016;28;20268;-86
2023/04/15 04:16:41;;;;;;;5.72;5.22;;;;;;;;;;5077899;28;20674;-86
2023/04/15 04:19:10;;;;;;;5.80;5.30;;;;;;;;;;5077617;28;20292;-87
2023/04/15 04:21:38;;;;;;;6.25;5.47;;;;;;;;;;5078363;28;20292;-87
2023/04/15 04:24:06;;;;;;;5.20;4.38;;;;;;;;;;5077969;28;20709;-87
2023/04/15 04:26:33;;;;;;;5.82;5.22;;;;;;;;;;5058523;28;20729;-85
2023/04/15 04:29:01;;;;;;;5.30;4.90;;;;;;;;;;5057056;28;20205;-87
2023/04/15 04:31:28;;;;;;;6.22;5.28;;;;;;;;;;5057436;28;20213;-87
2023/04/15 04:33:56;;;;;;;5.50;5.00;;;;;;;;;;5058239;28;20271;-87
2023/04/15 04:36:25;;;;;;;6.15;5.55;;;;;;;;;;5056791;28;20248;-86
2023/04/15 04:38:52;;;;;;;6.20;5.60;;;;;;;;;;5057600;28;20209;-87
2023/04/15 04:41:20;;;;;;;7.57;6.78;;;;;;;;;;5058253;28;20292;-87
2023/04/15 04:43:47;;;;;;;6.28;5.70;;;;;;;;;;5057601;28;20245;-86
2023/04/15 04:46:15;;;;;;;8.30;6.28;;;;;;;;;;5056992;28;20658;-87
2023/04/15 04:48:42;;;;;;;6.28;5.68;;;;;;;;;;5056431;28;20284;-87
2023/04/15 04:51:10;;;;;;;7.18;6.47;;;;;;;;;;5057027;28;20197;-87
2023/04/15 04:53:39;;;;;;;6.75;6.00;;;;;;;;;;5057479;28;20253;-88
2023/04/15 04:56:07;;;;;;;7.25;6.55;;;;;;;;;;5073605;28;20247;-87
2023/04/15 04:58:34;;;;;;;9.02;7.40;;;;;;;;;;5077353;28;20292;-88
2023/04/15 05:01:02;;;;;;;8.27;7.32;;;;;;;;;;5077228;28;20208;-85
2023/04/15 05:03:30;;;;;;;7.47;6.82;;;;;;;;;;5076312;28;20229;-87
2023/04/15 05:05:58;;;;;;;7.40;6.70;;;;;;;;;;5076795;28;20243;-87
2023/04/15 05:08:25;;;;;;;7.00;6.38;;;;;;;;;;5076266;28;20244;-88
2023/04/15 05:10:54;;;;;;;7.22;6.30;;;;;;;;;;5077198;28;20229;-86
2023/04/15 05:13:21;;;;;;;8.25;7.45;;;;;;;;;;5076567;28;20768;-88
2023/04/15 05:15:49;;;;;;;7.40;6.68;;;;;;;;;;5076163;28;20597;-87
2023/04/15 05:18:16;;;;;;;8.02;7.32;;;;;;;;;;5076402;28;20239;-87
2023/04/15 05:20:44;;;;;;;8.32;7.07;;;;;;;;;;5076470;28;20265;-87
2023/04/15 05:23:11;;;;;;;6.78;6.15;;;;;;;;;;5076802;28;20288;-87
2023/04/15 05:25:39;;;;;;;7.40;6.70;;;;;;;;;;5076385;28;20250;-87
2023/04/15 05:28:08;;;;;;;7.68;6.95;;;;;;;;;;5075934;28;20247;-85
2023/04/15 05:30:35;;;;;;;6.75;6.05;;;;;;;;;;5076142;28;20306;-86
2023/04/15 05:33:03;;;;;;;7.40;6.63;;;;;;;;;;5075031;28;20284;-87
2023/04/15 05:35:31;;;;;;;7.72;6.90;;;;;;;;;;5075779;28;20312;-86
2023/04/15 05:37:58;;;;;;;7.60;6.90;;;;;;;;;;5073602;28;20283;-87
2023/04/15 05:40:26;;;;;;;9.73;8.75;;;;;;;;;;5073981;28;20228;-86
2023/04/15 05:42:53;;;;;;;7.43;6.75;;;;;;;;;;5073821;28;20236;-85
2023/04/15 05:45:22;;;;;;;9.07;7.53;;;;;;;;;;5074312;28;20248;-85
2023/04/15 05:47:52;;;;;;;7.15;6.47;;;;;;;;;;5073907;28;20287;-85
2023/04/15 05:50:20;;;;;;;8.63;7.72;;;;;;;;;;5073729;28;20205;-86
2023/04/15 05:52:47;;;;;;;6.75;6.15;;;;;;;;;;5074029;28;20298;-86
2023/04/15 05:55:15;;;;;;;7.60;6.90;;;;;;;;;;5073481;28;20239;-84
2023/04/15 05:57:42;;;;;;;7.07;6.38;;;;;;;;;;5073167;28;20314;-87
2023/04/15 06:00:12;;;;;;;7.32;6.50;;;;;;;;;;5073886;28;20197;-86
2023/04/15 06:02:41;;;;;;;6.38;5.82;;;;;;;;;;5073745;28;20204;-85
2023/04/15 06:05:10;;;;;;;7.80;6.72;;;;;;;;;;5073733;28;20217;-85
2023/04/15 06:07:38;;;;;;;6.90;6.13;;;;;;;;;;5073657;28;20205;-86
2023/04/15 06:10:07;;;;;;;8.02;6.43;;;;;;;;;;5072955;28;20205;-84
2023/04/15 06:12:35;;;;;;;6.82;6.13;;;;;;;;;;5073713;28;20276;-86
2023/04/15 06:15:03;;;;;;;7.03;6.43;;;;;;;;;;5072988;28;20271;-87
2023/04/15 06:17:30;;;;;;;7.60;6.60;;;;;;;;;;5073345;28;20236;-85
2023/04/15 06:19:59;;;;;;;7.18;6.47;;;;;;;;;;5071332;28;20273;-86
2023/04/15 06:22:27;;;;;;;8.27;6.60;;;;;;;;;;5073610;28;20284;-87
2023/04/15 06:24:55;;;;;;;6.80;6.10;;;;;;;;;;5073093;28;20641;-86
2023/04/15 06:27:22;;;;;;;6.70;6.10;;;;;;;;;;5073959;28;20616;-86
2023/04/15 06:29:50;;;;;;;8.57;7.68;;;;;;;;;;5073027;28;20208;-85
2023/04/15 06:32:17;;;;;;;7.38;6.55;;;;;;;;;;5073362;28;20669;-86
2023/04/15 06:34:45;;;;;;;8.00;6.75;;;;;;;;;;5072669;28;20679;-87
2023/04/15 06:37:15;;;;;;;7.95;7.15;;;;;;;;;;5072283;28;20316;-87
2023/04/15 06:39:43;;;;;;;8.07;7.15;;;;;;;;;;5072810;28;20207;-85
2023/04/15 06:42:11;;;;;;;7.63;6.75;;;;;;;;;;5074093;28;20209;-85
2023/04/15 06:44:38;;;;;;;8.23;6.75;;;;;;;;;;5052852;28;20221;-86
2023/04/15 06:47:06;;;;;;;8.90;7.97;;;;;;;;;;5053470;28;20293;-87
2023/04/15 06:49:33;;;;;;;7.57;6.88;;;;;;;;;;5052641;28;20214;-87
2023/04/15 06:52:01;;;;;;;7.70;6.90;;;;;;;;;;5053247;28;20252;-85
2023/04/15 06:54:30;;;;;;;8.35;7.55;;;;;;;;;;5056810;28;20240;-85
2023/04/15 06:56:57;;;;;;;8.95;8.05;;;;;;;;;;5070439;28;20280;-86
2023/04/15 06:59:26;;;;;;;8.43;7.63;;;;;;;;;;5076308;28;20211;-85
2023/04/15 07:01:53;;;;;;;7.53;6.72;;;;;;;;;;5076988;28;20232;-86
2023/04/15 07:04:21;;;;;;;8.35;7.57;;;;;;;;;;5077284;28;20312;-85
2023/04/15 07:06:48;;;;;;;7.43;6.60;;;;;;;;;;5077237;28;20229;-86
2023/04/15 07:09:16;;;;;;;8.75;7.57;;;;;;;;;;5077212;28;20276;-86
2023/04/15 07:11:45;;;;;;;8.55;7.65;;;;;;;;;;5077273;28;20266;-86
2023/04/15 07:14:12;;;;;;;8.80;7.95;;;;;;;;;;5076612;28;20252;-86
2023/04/15 07:16:40;;;;;;;8.38;7.47;;;;;;;;;;5077064;28;20670;-84
2023/04/15 07:19:08;;;;;;;9.07;8.18;;;;;;;;;;5076052;28;20207;-86
2023/04/15 07:21:35;;;;;;;8.95;7.93;;;;;;;;;;5076865;28;20292;-86
2023/04/15 07:24:03;;;;;;;9.70;8.73;;;;;;;;;;5076343;28;20701;-86
2023/04/15 07:26:30;;;;;;;8.88;7.82;;;;;;;;;;5076588;28;20624;-85
2023/04/15 07:28:59;;;;;;;9.38;8.23;;;;;;;;;;5077653;28;20237;-86
2023/04/15 07:31:27;;;;;;;8.43;7.63;;;;;;;;;;5077339;28;20240;-87
2023/04/15 07:33:54;;;;;;;9.43;8.40;;;;;;;;;;5076144;28;20693;-85
2023/04/15 07:36:22;;;;;;;9.30;8.25;;;;;;;;;;5075929;28;20649;-86
2023/04/15 07:38:49;;;;;;;9.90;7.78;;;;;;;;;;5075736;28;20288;-87
2023/04/15 07:41:17;;;;;;;8.38;7.53;;;;;;;;;;5076134;28;20239;-87
2023/04/15 07:43:44;;;;;;;8.80;7.90;;;;;;;;;;5076984;28;20217;-86
2023/04/15 07:46:13;;;;;;;8.18;7.03;;;;;;;;;;5076297;28;20572;-86
2023/04/15 07:48:41;;;;;;;8.95;7.70;;;;;;;;;;5077319;28;20197;-86
2023/04/15 07:51:09;;;;;;;9.20;8.23;;;;;;;;;;5077560;28;20287;-85
2023/04/15 07:53:37;;;;;;;8.73;7.90;;;;;;;;;;5076710;28;20275;-86
2023/04/15 07:56:05;;;;;;;8.63;7.45;;;;;;;;;;5076169;28;20712;-86
2023/04/15 07:58:33;;;;;;;10.05;7.55;;;;;;;;;;5077416;28;20197;-85
2023/04/15 08:01:00;;;;;;;8.00;7.07;;;;;;;;;;5077783;28;20208;-86
2023/04/15 08:03:29;;;;;;;7.75;6.95;;;;;;;;;;5077036;28;20256;-85
2023/04/15 08:05:57;;;;;;;9.63;7.30;;;;;;;;;;5075263;28;20269;-86
2023/04/15 08:08:25;;;;;;;9.35;7.80;;;;;;;;;;5074801;28;20204;-85
2023/04/15 08:10:52;;;;;;;8.75;7.82;;;;;;;;;;5075779;28;20647;-85
2023/04/15 08:13:20;;;;;;;8.05;7.20;;;;;;;;;;5075466;28;20236;-86
2023/04/15 08:16:19;;;;;;;6.63;5.95;;;;;;;;;;5076702;28;20231;-86
2023/04/15 08:18:48;;;;;;;7.53;6.53;;;;;;;;;;5077326;28;20194;-87
2023/04/15 08:21:16;;;;;;;7.03;6.13;;;;;;;;;;5078201;28;20236;-87
2023/04/15 08:23:44;;;;;;;6.68;5.82;;;;;;;;;;5076978;28;20733;-87
2023/04/15 08:26:12;;;;;;;6.57;5.95;;;;;;;;;;5078083;28;20237;-87
2023/04/15 08:28:41;;;;;;;6.72;6.03;;;;;;;;;;5078790;28;20236;-86
2023/04/15 08:31:09;;;;;;;7.13;6.43;;;;;;;;;;5079690;28;20677;-83
2023/04/15 08:33:36;;;;;;;6.93;5.75;;;;;;;;;;5078161;28;20217;-87
2023/04/15 08:36:06;;;;;;;7.35;6.65;;;;;;;;;;5077425;28;20285;-86
2023/04/15 08:38:33;;;;;;;5.63;4.95;;;;;;;;;;5077183;28;20217;-86
2023/04/15 08:41:04;;;;;;;6.57;5.43;;;;;;;;;;5077120;28;20288;-84
2023/04/15 08:43:35;;;;;;;5.45;4.95;;;;;;;;;;5076901;28;20668;-86
2023/04/15 08:46:03;;;;;;;5.60;5.10;;;;;;;;;;5077016;28;20177;-85
2023/04/15 08:48:33;;;;;;;5.60;5.00;;;;;;;;;;5077125;28;20233;-88
2023/04/15 08:51:02;;;;;;;6.10;5.55;;;;;;;;;;5076441;28;20208;-84
2023/04/15 08:53:31;;;;;;;5.95;5.30;;;;;;;;;;5076930;28;20236;-84
2023/04/15 08:56:01;;;;;;;7.25;6.25;;;;;;;;;;5075594;28;20233;-86
2023/04/15 08:58:29;;;;;;;5.15;4.63;;;;;;;;;;5073439;28;20705;-86
2023/04/15 09:00:58;;;;;;;6.18;5.57;;;;;;;;;;5074190;28;20247;-85
2023/04/15 09:03:25;;;;;;;6.68;6.03;;;;;;;;;;5073368;28;20308;-85
2023/04/15 09:05:53;;;;;;;7.90;6.13;;;;;;;;;;5073385;28;20291;-86
2023/04/15 09:08:21;;;;;;;6.13;5.60;;;;;;;;;;5073462;28;20685;-86
2023/04/15 09:10:50;;;;;;;4.93;4.30;;;;;;;;;;5073872;28;20232;-86
2023/04/15 09:13:18;;;;;;;5.85;5.25;;;;;;;;;;5073602;28;20207;-86
2023/04/15 09:15:45;;;;;;;5.60;5.10;;;;;;;;;;5073442;28;20201;-86
2023/04/15 09:18:13;;;;;;;5.22;4.43;;;;;;;;;;5073656;28;20217;-86
2023/04/15 09:20:41;;;;;;;5.75;5.15;;;;;;;;;;5072475;28;20243;-86
2023/04/15 09:23:14;;;;;;;5.35;4.85;;;;;;;;;;5072970;28;20259;-86
2023/04/15 09:25:42;;;;;;;5.60;5.10;;;;;;;;;;5073412;28;20205;-85
2023/04/15 09:28:11;;;;;;;5.43;4.85;;;;;;;;;;5073554;28;20614;-86
2023/04/15 09:30:39;;;;;;;5.63;4.97;;;;;;;;;;5073418;28;20636;-86
2023/04/15 09:33:09;;;;;;;4.65;4.15;;;;;;;;;;5073321;28;20197;-86
2023/04/15 09:35:37;;;;;;;5.15;4.65;;;;;;;;;;5073410;28;20201;-87
2023/04/15 09:38:06;;;;;;;7.10;4.95;;;;;;;;;;5073089;28;20249;-86
2023/04/15 09:40:35;;;;;;;4.68;4.22;;;;;;;;;;5073528;28;20232;-86
2023/04/15 09:43:03;;;;;;;6.00;4.82;;;;;;;;;;5073589;28;20573;-86
2023/04/15 09:45:34;;;;;;;5.20;4.70;;;;;;;;;;5073270;28;20201;-85
2023/04/15 09:48:17;;;;;;;4.82;4.43;;;;;;;;;;5072784;28;20185;-85
2023/04/15 09:50:45;;;;;;;4.63;4.07;;;;;;;;;;5073075;28;20224;-85
2023/04/15 09:53:18;;;;;;;4.40;4.00;;;;;;;;;;5073013;28;20197;-86
2023/04/15 09:55:50;;;;;;;3.88;3.58;;;;;;;;;;5073289;28;20204;-87
2023/04/15 09:58:22;;;;;;;3.72;3.42;;;;;;;;;;5072681;28;20201;-87
2023/04/15 10:00:52;;;;;;;4.55;3.95;;;;;;;;;;5073362;28;20201;-86
2023/04/15 10:03:22;;;;;;;3.35;3.00;;;;;;;;;;5073144;28;20267;-87
2023/04/15 10:05:51;;;;;;;3.28;2.97;;;;;;;;;;5072928;28;20227;-88
2023/04/15 10:08:20;;;;;;;2.63;2.42;;;;;;;;;;5073894;28;20219;-88
2023/04/15 10:10:50;;;;;;;2.83;2.63;;;;;;;;;;5073929;28;20236;-87
2023/04/15 10:13:21;;;;;;;3.53;2.80;;;;;;;;;;5073391;28;20948;-89
2023/04/15 10:16:06;;;;;;;2.78;2.58;;;;;;;;;;5073139;28;20231;-88
2023/04/15 10:18:38;;;;;;;4.95;2.72;;;;;;;;;;5073891;28;20217;-86
2023/04/15 10:21:06;;;;;;;2.40;2.20;;;;;;;;;;5074039;28;20685;-86
2023/04/15 10:23:34;;;;;;;2.70;2.50;;;;;;;;;;5074045;28;20311;-86
2023/04/15 10:26:03;;;;;;;3.05;2.85;;;;;;;;;;5073736;28;20237;-86
2023/04/15 10:28:30;;;;;;;2.92;2.72;;;;;;;;;;5073597;28;20201;-86
2023/04/15 10:30:59;;;;;;;2.45;2.25;;;;;;;;;;5075074;28;20287;-86
2023/04/15 10:33:27;;;;;;;3.42;2.97;;;;;;;;;;5077541;28;20217;-86
2023/04/15 10:35:56;;;;;;;2.15;2.05;;;;;;;;;;5077527;28;20219;-86
2023/04/15 10:38:35;;;;;;;2.83;2.63;;;;;;;;;;5078008;28;20240;-86
2023/04/15 10:41:18;;;;;;;2.85;2.63;;;;;;;;;;5076738;28;20196;-86
2023/04/15 10:43:54;;;;;;;2.63;2.42;;;;;;;;;;5077364;28;20311;-86
2023/04/15 10:46:36;;;;;;;3.00;2.72;;;;;;;;;;5078951;28;20283;-86
2023/04/15 10:49:10;;;;;;;3.38;2.72;;;;;;;;;;5078704;28;20203;-87
2023/04/15 10:51:41;;;;;;;3.13;2.88;;;;;;;;;;5077393;28;20537;-86
2023/04/15 10:54:13;;;;;;;3.25;2.95;;;;;;;;;;5078372;28;20221;-86
2023/04/15 10:56:43;;;;;;;2.85;2.65;;;;;;;;;;5077427;28;20201;-86
2023/04/15 10:59:11;;;;;;;3.00;2.75;;;;;;;;;;5077023;28;20308;-86
2023/04/15 11:01:55;;;;;;;2.42;2.22;;;;;;;;;;5078137;28;20297;-88
2023/04/15 11:04:55;;;;;;;2.63;1.92;;;;;;;;;;5077524;28;20677;-86
2023/04/15 11:07:39;;;;;;;2.47;2.28;;;;;;;;;;5078236;28;20200;-87
2023/04/15 11:10:55;;;;;;;2.35;2.08;;;;;;;;;;5077924;28;20690;-86
2023/04/15 11:13:31;;;;;;;2.03;1.92;;;;;;;;;;5015343;28;20202;-85
2023/04/15 11:16:03;;;;;;;2.58;2.38;;;;;;;;;;5068026;28;20201;-87
2023/04/15 11:18:35;;;;;;;2.38;2.10;;;;;;;;;;5075829;28;20232;-85
2023/04/15 11:21:06;;;;;;;2.35;2.15;;;;;;;;;;5075498;28;20296;-86
2023/04/15 11:23:40;;;;;;;1.65;1.55;;;;;;;;;;5075749;28;20221;-86
2023/04/15 11:26:10;;;;;;;1.80;1.70;;;;;;;;;;5075163;28;20208;-86
2023/04/15 11:28:42;;;;;;;2.25;2.08;;;;;;;;;;5075535;28;20185;-84
2023/04/15 11:31:12;;;;;;;1.70;1.60;;;;;;;;;;5075212;28;20239;-83
2023/04/15 11:33:46;;;;;;;1.70;1.60;;;;;;;;;;5075100;28;20242;-85
2023/04/15 11:36:14;;;;;;;1.70;1.60;;;;;;;;;;5074960;28;20203;-85
2023/04/15 11:38:46;;;;;;;1.60;1.50;;;;;;;;;;5075015;28;20259;-85
2023/04/15 11:41:14;;;;;;;1.60;1.50;;;;;;;;;;5075297;28;20609;-85
2023/04/15 11:43:43;;;;;;;1.55;1.45;;;;;;;;;;5074699;28;20704;-85
2023/04/15 11:46:10;;;;;;;2.00;1.85;;;;;;;;;;5074754;28;20643;-85
2023/04/15 11:48:44;;;;;;;1.45;1.35;;;;;;;;;;5074998;28;20247;-85
2023/04/15 11:51:13;;;;;;;1.60;1.50;;;;;;;;;;5074915;28;20189;-85
2023/04/15 11:53:42;;;;;;;1.45;1.35;;;;;;;;;;5075525;28;20448;-85
2023/04/15 11:56:12;;;;;;;3.30;2.30;;;;;;;;;;5075282;28;20207;-85
2023/04/15 11:58:41;;;;;;;2.17;1.90;;;;;;;;;;5074719;28;20270;-85
2023/04/15 12:01:08;;;;;;;1.75;1.65;;;;;;;;;;5075300;28;20212;-85
2023/04/15 12:03:42;;;;;;;1.52;1.42;;;;;;;;;;5074737;28;20249;-85
2023/04/15 12:06:18;;;;;;;1.80;1.70;;;;;;;;;;5075134;28;20547;-85
2023/04/15 12:09:04;;;;;;;2.45;2.28;;;;;;;;;;5074616;28;20201;-84
2023/04/15 12:11:38;;;;;;;2.05;1.85;;;;;;;;;;5074710;28;20226;-84
2023/04/15 12:14:12;;;;;;;1.58;1.48;;;;;;;;;;5075171;28;20221;-84
2023/04/15 12:16:42;;;;;;;2.33;1.90;;;;;;;;;;5074892;28;20204;-85
2023/04/15 12:19:13;;;;;;;2.50;2.30;;;;;;;;;;5074387;28;20692;-85
2023/04/15 12:21:46;;;;;;;2.10;2.00;;;;;;;;;;5074884;28;20268;-85
2023/04/15 12:24:15;;;;;;;2.25;2.10;;;;;;;;;;5073699;28;20315;-85
2023/04/15 12:26:47;;;;;;;2.60;2.40;;;;;;;;;;5074504;28;20576;-84
2023/04/15 12:29:16;;;;;;;2.67;2.45;;;;;;;;;;5074198;28;20280;-85
2023/04/15 12:31:51;;;;;;;2.38;2.17;;;;;;;;;;5074402;28;20201;-85
2023/04/15 12:34:26;;;;;;;2.72;2.53;;;;;;;;;;5074098;28;20697;-85
2023/04/15 12:36:55;;;;;;;3.00;2.70;;;;;;;;;;5073925;28;20185;-85
2023/04/15 12:39:24;;;;;;;2.10;2.00;;;;;;;;;;5073590;28;20247;-85
2023/04/15 12:41:51;;;;;;;2.53;2.33;;;;;;;;;;5074229;28;20204;-85
2023/04/15 12:44:19;;;;;;;2.80;2.60;;;;;;;;;;5074260;28;20227;-85
2023/04/15 12:46:47;;;;;;;2.60;2.40;;;;;;;;;;5073833;28;20201;-85
2023/04/15 12:49:15;;;;;;;4.07;3.53;;;;;;;;;;5074438;28;20614;-85
2023/04/15 12:51:42;;;;;;;3.22;2.92;;;;;;;;;;5074142;28;20567;-85
2023/04/15 12:54:11;;;;;;;2.60;2.40;;;;;;;;;;5073712;28;20228;-84
2023/04/15 12:56:39;;;;;;;3.58;3.28;;;;;;;;;;5072869;28;20295;-85
2023/04/15 12:59:06;;;;;;;2.85;2.60;;;;;;;;;;5073305;28;20252;-86
2023/04/15 13:01:34;;;;;;;2.95;2.75;;;;;;;;;;5073538;28;20732;-85
2023/04/15 13:04:02;;;;;;;3.53;3.22;;;;;;;;;;5073218;28;20232;-85
2023/04/15 13:06:32;;;;;;;3.13;2.60;;;;;;;;;;5073775;28;20181;-86
2023/04/15 13:09:00;;;;;;;2.88;2.67;;;;;;;;;;5072996;28;20209;-85
2023/04/15 13:11:29;;;;;;;2.65;2.45;;;;;;;;;;5073306;28;20211;-86
2023/04/15 13:13:57;;;;;;;2.92;2.72;;;;;;;;;;5073587;28;20252;-84
2023/04/15 13:16:25;;;;;;;2.88;2.67;;;;;;;;;;5073461;28;20201;-85
2023/04/15 13:18:52;;;;;;;2.88;2.67;;;;;;;;;;5072472;28;20669;-84
2023/04/15 13:21:20;;;;;;;2.45;2.25;;;;;;;;;;5072744;28;20197;-85
2023/04/15 13:23:48;;;;;;;2.78;2.58;;;;;;;;;;5072254;28;20650;-84
2023/04/15 13:26:16;;;;;;;2.92;2.70;;;;;;;;;;5055478;28;20212;-85
2023/04/15 13:28:45;;;;;;;2.72;2.55;;;;;;;;;;5052360;28;20421;-85
2023/04/15 13:31:12;;;;;;;6.40;5.80;;;;;;;;;;5052921;28;20296;-85
2023/04/15 13:33:40;;;;;;;3.28;3.03;;;;;;;;;;5052862;28;20228;-84
2023/04/15 13:36:07;;;;;;;3.00;2.78;;;;;;;;;;5052209;28;20240;-84
2023/04/15 13:38:35;;;;;;;2.70;2.50;;;;;;;;;;5054244;28;20256;-85
2023/04/15 13:41:02;;;;;;;3.10;2.80;;;;;;;;;;5053124;28;20220;-85
2023/04/15 13:43:30;;;;;;;2.72;2.53;;;;;;;;;;5052863;28;20260;-86
2023/04/15 13:45:59;;;;;;;3.05;2.75;;;;;;;;;;5053027;28;20244;-86
2023/04/15 13:48:26;;;;;;;2.47;2.28;;;;;;;;;;5052399;28;20225;-85
2023/04/15 13:50:54;;;;;;;2.80;2.60;;;;;;;;;;5052231;28;20740;-86
2023/04/15 13:53:21;;;;;;;3.28;3.08;;;;;;;;;;5052235;28;20228;-85
2023/04/15 13:55:49;;;;;;;3.28;3.08;;;;;;;;;;5053310;28;20233;-86
2023/04/15 13:58:20;;;;;;;2.80;2.60;;;;;;;;;;5052736;28;20269;-85
2023/04/15 14:00:47;;;;;;;3.00;2.80;;;;;;;;;;5052560;28;20266;-86
2023/04/15 14:03:16;;;;;;;3.42;3.13;;;;;;;;;;5052804;28;20241;-84
2023/04/15 14:05:43;;;;;;;3.42;3.13;;;;;;;;;;5052124;28;20229;-86
2023/04/15 14:08:11;;;;;;;4.13;3.72;;;;;;;;;;5056626;28;20209;-84
2023/04/15 14:10:40;;;;;;;4.05;3.75;;;;;;;;;;5055849;28;20623;-87
2023/04/15 14:13:08;;;;;;;4.72;4.32;;;;;;;;;;5056829;28;20236;-86
2023/04/15 14:15:35;;;;;;;4.35;3.95;;;;;;;;;;5056324;28;20284;-85
2023/04/15 14:18:03;;;;;;;4.03;3.50;;;;;;;;;;5056524;28;20204;-85
2023/04/15 14:20:31;;;;;;;4.18;3.78;;;;;;;;;;5055952;28;20308;-84
2023/04/15 14:22:59;;;;;;;3.65;3.35;;;;;;;;;;5055718;28;20288;-84
2023/04/15 14:25:27;;;;;;;4.00;3.70;;;;;;;;;;5067166;28;20227;-86
2023/04/15 14:27:55;;;;;;;4.88;4.40;;;;;;;;;;5076348;28;20338;-86
2023/04/15 14:30:22;;;;;;;5.57;4.38;;;;;;;;;;5076283;28;20639;-85
2023/04/15 14:32:49;;;;;;;4.07;3.70;;;;;;;;;;5075735;28;20283;-85
2023/04/15 14:35:17;;;;;;;4.85;4.35;;;;;;;;;;5075291;28;20248;-84
2023/04/15 14:37:46;;;;;;;4.70;4.32;;;;;;;;;;5075862;28;20204;-85
2023/04/15 14:40:13;;;;;;;4.05;3.75;;;;;;;;;;5075447;28;20316;-85
2023/04/15 14:42:41;;;;;;;5.15;4.75;;;;;;;;;;5075341;28;20229;-86
2023/04/15 14:45:10;;;;;;;5.00;4.60;;;;;;;;;;5076113;28;20243;-86
2023/04/15 14:47:38;;;;;;;4.97;4.45;;;;;;;;;;5076098;28;20201;-86
2023/04/15 14:50:06;;;;;;;4.85;4.45;;;;;;;;;;5075388;28;20294;-86
2023/04/15 14:52:37;;;;;;;4.57;4.18;;;;;;;;;;5075998;28;20201;-86
2023/04/15 14:55:09;;;;;;;6.32;5.68;;;;;;;;;;5076022;28;20259;-86